sensor_id;sensor_type;location;lat;lon;timestamp;pressure;altitude;pressure_sealevel;temperature;humidity
46722;BME280;32455;43.430;23.136;2023-01-23T00:02:23;98860.38;;;3.67;100.00
46722;BME280;32455;43.430;23.136;2023-01-23T00:05:09;98867.06;;;3.79;100.00
46722;BME280;32455;43.430;23.136;2023-01-23T00:07:55;98856.50;;;3.53;100.00
46722;BME280;32455;43.430;23.136;2023-01-23T00:10:40;98861.16;;;3.59;100.00
46722;BME280;32455;43.430;23.136;2023-01-23T00:13:25;98864.69;;;3.68;100.00
46722;BME280;32455;43.430;23.136;2023-01-23T00:16:16;98838.56;;;3.47;100.00
46722;BME280;32455;43.430;23.136;2023-01-23T00:19:02;98867.34;;;3.68;100.00
46722;BME280;32455;43.430;23.136;2023-01-23T00:21:47;98851.31;;;3.35;100.00
46722;BME280;32455;43.430;23.136;2023-01-23T00:24:32;98855.75;;;3.26;100.00
46722;BME280;32455;43.430;23.136;2023-01-23T00:27:18;98862.13;;;3.50;100.00
46722;BME280;32455;43.430;23.136;2023-01-23T00:30:04;98859.19;;;3.61;100.00
46722;BME280;32455;43.430;23.136;2023-01-23T00:32:49;98867.19;;;3.69;100.00
46722;BME280;32455;43.430;23.136;2023-01-23T00:35:35;98865.03;;;3.65;100.00
46722;BME280;32455;43.430;23.136;2023-01-23T00:38:20;98846.91;;;3.60;100.00
46722;BME280;32455;43.430;23.136;2023-01-23T00:41:06;98841.94;;;3.65;100.00
46722;BME280;32455;43.430;23.136;2023-01-23T00:43:52;98825.19;;;3.73;100.00
46722;BME280;32455;43.430;23.136;2023-01-23T00:46:37;98854.59;;;3.80;100.00
46722;BME280;32455;43.430;23.136;2023-01-23T00:49:23;98856.94;;;3.83;100.00
46722;BME280;32455;43.430;23.136;2023-01-23T00:52:08;98850.44;;;3.85;100.00
46722;BME280;32455;43.430;23.136;2023-01-23T00:54:54;98857.09;;;3.89;100.00
46722;BME280;32455;43.430;23.136;2023-01-23T00:57:39;98859.94;;;3.88;100.00
46722;BME280;32455;43.430;23.136;2023-01-23T01:00:25;98864.25;;;3.97;100.00
46722;BME280;32455;43.430;23.136;2023-01-23T01:03:11;98873.91;;;4.06;100.00
46722;BME280;32455;43.430;23.136;2023-01-23T01:05:57;98874.59;;;4.08;100.00
46722;BME280;32455;43.430;23.136;2023-01-23T01:08:42;98850.66;;;4.08;100.00
46722;BME280;32455;43.430;23.136;2023-01-23T01:11:27;98874.28;;;4.11;100.00
46722;BME280;32455;43.430;23.136;2023-01-23T01:14:12;98871.22;;;3.82;100.00
46722;BME280;32455;43.430;23.136;2023-01-23T01:16:57;98885.41;;;3.98;100.00
46722;BME280;32455;43.430;23.136;2023-01-23T01:19:43;98880.41;;;4.04;100.00
46722;BME280;32455;43.430;23.136;2023-01-23T01:22:30;98891.84;;;3.96;100.00
46722;BME280;32455;43.430;23.136;2023-01-23T01:25:15;98871.09;;;3.99;100.00
46722;BME280;32455;43.430;23.136;2023-01-23T01:28:00;98867.72;;;3.89;100.00
46722;BME280;32455;43.430;23.136;2023-01-23T01:30:45;98879.38;;;3.96;100.00
46722;BME280;32455;43.430;23.136;2023-01-23T01:33:30;98872.72;;;3.92;100.00
46722;BME280;32455;43.430;23.136;2023-01-23T01:36:19;98887.19;;;3.98;100.00
46722;BME280;32455;43.430;23.136;2023-01-23T01:39:04;98885.06;;;4.10;100.00
46722;BME280;32455;43.430;23.136;2023-01-23T01:41:50;98880.56;;;4.10;100.00
46722;BME280;32455;43.430;23.136;2023-01-23T01:44:56;98870.06;;;3.92;100.00
46722;BME280;32455;43.430;23.136;2023-01-23T01:47:41;98875.72;;;3.97;100.00
46722;BME280;32455;43.430;23.136;2023-01-23T01:50:26;98886.06;;;4.09;100.00
46722;BME280;32455;43.430;23.136;2023-01-23T01:53:12;98877.03;;;3.85;100.00
46722;BME280;32455;43.430;23.136;2023-01-23T01:55:57;98894.31;;;3.89;100.00
46722;BME280;32455;43.430;23.136;2023-01-23T01:58:45;98877.19;;;3.84;100.00
46722;BME280;32455;43.430;23.136;2023-01-23T02:01:31;98891.03;;;3.95;100.00
46722;BME280;32455;43.430;23.136;2023-01-23T02:04:18;98888.88;;;3.99;100.00
46722;BME280;32455;43.430;23.136;2023-01-23T02:07:08;98885.38;;;3.90;100.00
46722;BME280;32455;43.430;23.136;2023-01-23T02:09:56;98893.34;;;3.90;100.00
46722;BME280;32455;43.430;23.136;2023-01-23T02:12:45;98907.63;;;3.97;100.00
46722;BME280;32455;43.430;23.136;2023-01-23T02:15:31;98890.69;;;3.90;100.00
46722;BME280;32455;43.430;23.136;2023-01-23T02:18:16;98896.50;;;3.94;100.00
46722;BME280;32455;43.430;23.136;2023-01-23T02:21:05;98892.38;;;3.99;100.00
46722;BME280;32455;43.430;23.136;2023-01-23T02:24:12;98898.28;;;3.85;100.00
46722;BME280;32455;43.430;23.136;2023-01-23T02:27:00;98885.34;;;3.82;100.00
46722;BME280;32455;43.430;23.136;2023-01-23T02:29:47;98896.28;;;3.79;100.00
46722;BME280;32455;43.430;23.136;2023-01-23T02:32:32;98896.19;;;3.55;100.00
46722;BME280;32455;43.430;23.136;2023-01-23T02:35:25;98885.13;;;3.67;100.00
46722;BME280;32455;43.430;23.136;2023-01-23T02:38:12;98898.16;;;3.87;100.00
46722;BME280;32455;43.430;23.136;2023-01-23T02:41:00;98906.81;;;3.97;100.00
46722;BME280;32455;43.430;23.136;2023-01-23T02:43:47;98906.19;;;4.03;100.00
46722;BME280;32455;43.430;23.136;2023-01-23T02:46:34;98881.88;;;3.98;100.00
46722;BME280;32455;43.430;23.136;2023-01-23T02:49:20;98901.53;;;4.21;100.00
46722;BME280;32455;43.430;23.136;2023-01-23T02:52:06;98896.38;;;4.04;100.00
46722;BME280;32455;43.430;23.136;2023-01-23T02:54:51;98900.19;;;4.09;100.00
46722;BME280;32455;43.430;23.136;2023-01-23T02:57:36;98900.88;;;4.11;100.00
46722;BME280;32455;43.430;23.136;2023-01-23T03:00:21;98894.69;;;4.11;100.00
46722;BME280;32455;43.430;23.136;2023-01-23T03:03:07;98888.22;;;4.13;100.00
46722;BME280;32455;43.430;23.136;2023-01-23T03:05:53;98894.56;;;4.20;100.00
46722;BME280;32455;43.430;23.136;2023-01-23T03:08:39;98890.72;;;4.23;100.00
46722;BME280;32455;43.430;23.136;2023-01-23T03:11:34;98894.56;;;4.37;100.00
46722;BME280;32455;43.430;23.136;2023-01-23T03:14:21;98871.94;;;4.16;100.00
46722;BME280;32455;43.430;23.136;2023-01-23T03:17:07;98875.59;;;4.23;100.00
46722;BME280;32455;43.430;23.136;2023-01-23T03:19:54;98866.28;;;4.19;100.00
46722;BME280;32455;43.430;23.136;2023-01-23T03:22:41;98890.91;;;4.30;100.00
46722;BME280;32455;43.430;23.136;2023-01-23T03:25:27;98894.09;;;4.41;100.00
46722;BME280;32455;43.430;23.136;2023-01-23T03:28:13;98897.22;;;4.45;100.00
46722;BME280;32455;43.430;23.136;2023-01-23T03:31:17;98898.41;;;4.50;100.00
46722;BME280;32455;43.430;23.136;2023-01-23T03:34:04;98884.78;;;4.37;100.00
46722;BME280;32455;43.430;23.136;2023-01-23T03:36:49;98902.06;;;4.49;100.00
46722;BME280;32455;43.430;23.136;2023-01-23T03:39:34;98904.75;;;4.41;100.00
46722;BME280;32455;43.430;23.136;2023-01-23T03:42:39;98882.09;;;4.13;100.00
46722;BME280;32455;43.430;23.136;2023-01-23T03:45:24;98906.53;;;4.16;100.00
46722;BME280;32455;43.430;23.136;2023-01-23T03:48:09;98896.53;;;4.18;100.00
46722;BME280;32455;43.430;23.136;2023-01-23T03:50:55;98908.53;;;4.22;100.00
46722;BME280;32455;43.430;23.136;2023-01-23T03:53:40;98890.72;;;4.15;100.00
46722;BME280;32455;43.430;23.136;2023-01-23T03:56:26;98912.69;;;4.25;100.00
46722;BME280;32455;43.430;23.136;2023-01-23T03:59:12;98908.53;;;4.22;100.00
46722;BME280;32455;43.430;23.136;2023-01-23T04:01:56;98920.50;;;4.35;100.00
46722;BME280;32455;43.430;23.136;2023-01-23T04:04:44;98913.03;;;4.38;100.00
46722;BME280;32455;43.430;23.136;2023-01-23T04:07:29;98910.19;;;4.23;100.00
46722;BME280;32455;43.430;23.136;2023-01-23T04:10:15;98920.81;;;4.23;100.00
46722;BME280;32455;43.430;23.136;2023-01-23T04:13:01;98920.34;;;4.20;100.00
46722;BME280;32455;43.430;23.136;2023-01-23T04:15:46;98913.00;;;4.22;100.00
46722;BME280;32455;43.430;23.136;2023-01-23T04:18:32;98922.97;;;4.28;100.00
46722;BME280;32455;43.430;23.136;2023-01-23T04:21:18;98892.41;;;4.24;100.00
46722;BME280;32455;43.430;23.136;2023-01-23T04:24:04;98907.72;;;4.38;100.00
46722;BME280;32455;43.430;23.136;2023-01-23T04:26:51;98905.72;;;4.24;100.00
46722;BME280;32455;43.430;23.136;2023-01-23T04:29:36;98916.03;;;4.35;100.00
46722;BME280;32455;43.430;23.136;2023-01-23T04:32:24;98913.03;;;4.38;100.00
46722;BME280;32455;43.430;23.136;2023-01-23T04:35:09;98926.84;;;4.42;100.00
46722;BME280;32455;43.430;23.136;2023-01-23T04:37:54;98921.00;;;4.30;100.00
46722;BME280;32455;43.430;23.136;2023-01-23T04:40:40;98931.66;;;4.30;100.00
46722;BME280;32455;43.430;23.136;2023-01-23T04:43:25;98935.34;;;4.37;100.00
46722;BME280;32455;43.430;23.136;2023-01-23T04:46:11;98944.16;;;4.46;100.00
46722;BME280;32455;43.430;23.136;2023-01-23T04:48:56;98929.00;;;4.38;100.00
46722;BME280;32455;43.430;23.136;2023-01-23T04:51:41;98929.00;;;4.30;100.00
46722;BME280;32455;43.430;23.136;2023-01-23T04:54:29;98928.00;;;4.39;100.00
46722;BME280;32455;43.430;23.136;2023-01-23T04:57:14;98926.50;;;4.45;100.00
46722;BME280;32455;43.430;23.136;2023-01-23T05:00:00;98943.97;;;4.39;100.00
46722;BME280;32455;43.430;23.136;2023-01-23T05:02:46;98960.25;;;4.44;100.00
46722;BME280;32455;43.430;23.136;2023-01-23T05:05:32;98953.78;;;4.47;100.00
46722;BME280;32455;43.430;23.136;2023-01-23T05:08:18;98950.13;;;4.48;100.00
46722;BME280;32455;43.430;23.136;2023-01-23T05:11:03;98950.63;;;4.43;100.00
46722;BME280;32455;43.430;23.136;2023-01-23T05:13:49;98965.59;;;4.52;100.00
46722;BME280;32455;43.430;23.136;2023-01-23T05:16:35;98975.09;;;4.55;100.00
46722;BME280;32455;43.430;23.136;2023-01-23T05:19:21;98961.59;;;4.48;100.00
46722;BME280;32455;43.430;23.136;2023-01-23T05:22:06;98971.25;;;4.58;100.00
46722;BME280;32455;43.430;23.136;2023-01-23T05:24:51;98964.09;;;4.58;100.00
46722;BME280;32455;43.430;23.136;2023-01-23T05:27:36;98970.28;;;4.50;100.00
46722;BME280;32455;43.430;23.136;2023-01-23T05:30:22;98973.91;;;4.41;100.00
46722;BME280;32455;43.430;23.136;2023-01-23T05:33:07;98968.91;;;4.30;100.00
46722;BME280;32455;43.430;23.136;2023-01-23T05:35:57;98977.69;;;4.22;100.00
46722;BME280;32455;43.430;23.136;2023-01-23T05:38:43;98979.34;;;4.23;100.00
46722;BME280;32455;43.430;23.136;2023-01-23T05:41:28;98970.03;;;4.19;100.00
46722;BME280;32455;43.430;23.136;2023-01-23T05:44:14;98980.53;;;4.29;100.00
46722;BME280;32455;43.430;23.136;2023-01-23T05:46:59;98997.84;;;4.33;100.00
46722;BME280;32455;43.430;23.136;2023-01-23T05:49:44;98982.69;;;4.25;100.00
46722;BME280;32455;43.430;23.136;2023-01-23T05:52:28;98968.53;;;4.17;100.00
46722;BME280;32455;43.430;23.136;2023-01-23T05:55:14;98997.34;;;4.30;100.00
46722;BME280;32455;43.430;23.136;2023-01-23T05:57:59;98983.53;;;4.26;100.00
46722;BME280;32455;43.430;23.136;2023-01-23T06:00:44;98987.19;;;4.25;100.00
46722;BME280;32455;43.430;23.136;2023-01-23T06:03:30;99015.97;;;4.38;100.00
46722;BME280;32455;43.430;23.136;2023-01-23T06:06:15;98990.00;;;4.32;100.00
46722;BME280;32455;43.430;23.136;2023-01-23T06:09:00;98997.34;;;4.30;100.00
46722;BME280;32455;43.430;23.136;2023-01-23T06:11:46;98996.66;;;4.36;100.00
46722;BME280;32455;43.430;23.136;2023-01-23T06:14:31;99014.66;;;4.42;100.00
46722;BME280;32455;43.430;23.136;2023-01-23T06:17:17;98990.84;;;4.24;100.00
46722;BME280;32455;43.430;23.136;2023-01-23T06:20:03;99027.28;;;4.40;100.00
46722;BME280;32455;43.430;23.136;2023-01-23T06:22:49;99016.13;;;4.36;100.00
46722;BME280;32455;43.430;23.136;2023-01-23T06:25:35;99012.31;;;4.39;100.00
46722;BME280;32455;43.430;23.136;2023-01-23T06:28:21;99015.19;;;4.45;100.00
46722;BME280;32455;43.430;23.136;2023-01-23T06:31:07;99019.66;;;4.53;100.00
46722;BME280;32455;43.430;23.136;2023-01-23T06:33:54;99000.03;;;4.46;100.00
46722;BME280;32455;43.430;23.136;2023-01-23T06:36:39;99031.97;;;4.62;100.00
46722;BME280;32455;43.430;23.136;2023-01-23T06:39:25;99015.50;;;4.42;100.00
46722;BME280;32455;43.430;23.136;2023-01-23T06:42:10;99042.44;;;4.47;100.00
46722;BME280;32455;43.430;23.136;2023-01-23T06:44:56;99025.41;;;4.32;100.00
46722;BME280;32455;43.430;23.136;2023-01-23T06:47:41;99035.97;;;4.50;100.00
46722;BME280;32455;43.430;23.136;2023-01-23T06:50:27;99035.13;;;4.49;100.00
46722;BME280;32455;43.430;23.136;2023-01-23T06:53:14;99048.28;;;4.51;100.00
46722;BME280;32455;43.430;23.136;2023-01-23T06:56:01;99042.88;;;4.26;100.00
46722;BME280;32455;43.430;23.136;2023-01-23T06:58:46;99032.94;;;4.45;100.00
46722;BME280;32455;43.430;23.136;2023-01-23T07:01:32;99037.16;;;4.56;100.00
46722;BME280;32455;43.430;23.136;2023-01-23T07:04:18;99055.09;;;4.62;100.00
46722;BME280;32455;43.430;23.136;2023-01-23T07:07:03;99046.44;;;4.51;100.00
46722;BME280;32455;43.430;23.136;2023-01-23T07:09:49;99063.72;;;4.47;100.00
46722;BME280;32455;43.430;23.136;2023-01-23T07:12:35;99069.25;;;4.54;100.00
46722;BME280;32455;43.430;23.136;2023-01-23T07:15:21;99079.03;;;4.53;100.00
46722;BME280;32455;43.430;23.136;2023-01-23T07:18:08;99069.41;;;4.52;100.00
46722;BME280;32455;43.430;23.136;2023-01-23T07:20:54;99077.22;;;4.62;100.00
46722;BME280;32455;43.430;23.136;2023-01-23T07:23:39;99066.97;;;4.67;100.00
46722;BME280;32455;43.430;23.136;2023-01-23T07:26:24;99078.28;;;4.77;100.00
46722;BME280;32455;43.430;23.136;2023-01-23T07:29:09;99094.06;;;4.71;100.00
46722;BME280;32455;43.430;23.136;2023-01-23T07:31:54;99079.91;;;4.54;100.00
46722;BME280;32455;43.430;23.136;2023-01-23T07:34:39;99086.72;;;4.57;100.00
46722;BME280;32455;43.430;23.136;2023-01-23T07:37:24;99084.91;;;4.65;100.00
46722;BME280;32455;43.430;23.136;2023-01-23T07:40:10;99087.75;;;4.72;100.00
46722;BME280;32455;43.430;23.136;2023-01-23T07:42:55;99092.75;;;4.75;100.00
46722;BME280;32455;43.430;23.136;2023-01-23T07:45:40;99091.41;;;4.79;100.00
46722;BME280;32455;43.430;23.136;2023-01-23T07:48:27;99082.75;;;4.69;100.00
46722;BME280;32455;43.430;23.136;2023-01-23T07:51:13;99092.22;;;4.63;100.00
46722;BME280;32455;43.430;23.136;2023-01-23T07:53:59;99080.41;;;4.66;100.00
46722;BME280;32455;43.430;23.136;2023-01-23T07:56:47;99090.94;;;4.84;100.00
46722;BME280;32455;43.430;23.136;2023-01-23T07:59:32;99095.47;;;4.99;100.00
46722;BME280;32455;43.430;23.136;2023-01-23T08:02:18;99098.81;;;5.01;100.00
46722;BME280;32455;43.430;23.136;2023-01-23T08:05:04;99093.97;;;4.89;100.00
46722;BME280;32455;43.430;23.136;2023-01-23T08:07:49;99095.09;;;4.78;100.00
46722;BME280;32455;43.430;23.136;2023-01-23T08:10:35;99100.41;;;4.78;100.00
46722;BME280;32455;43.430;23.136;2023-01-23T08:13:20;99082.94;;;4.75;100.00
46722;BME280;32455;43.430;23.136;2023-01-23T08:16:06;99094.28;;;4.86;100.00
46722;BME280;32455;43.430;23.136;2023-01-23T08:18:51;99089.97;;;4.85;100.00
46722;BME280;32455;43.430;23.136;2023-01-23T08:21:36;99097.09;;;4.92;100.00
46722;BME280;32455;43.430;23.136;2023-01-23T08:24:22;99104.25;;;4.92;100.00
46722;BME280;32455;43.430;23.136;2023-01-23T08:27:08;99120.75;;;4.95;100.00
46722;BME280;32455;43.430;23.136;2023-01-23T08:29:53;99102.91;;;4.88;100.00
46722;BME280;32455;43.430;23.136;2023-01-23T08:32:39;99110.41;;;4.92;100.00
46722;BME280;32455;43.430;23.136;2023-01-23T08:35:24;99117.94;;;4.97;100.00
46722;BME280;32455;43.430;23.136;2023-01-23T08:38:09;99113.44;;;4.97;100.00
46722;BME280;32455;43.430;23.136;2023-01-23T08:40:58;99118.28;;;5.02;100.00
46722;BME280;32455;43.430;23.136;2023-01-23T08:43:43;99117.09;;;5.05;100.00
46722;BME280;32455;43.430;23.136;2023-01-23T08:46:28;99131.44;;;5.03;100.00
46722;BME280;32455;43.430;23.136;2023-01-23T08:49:13;99135.41;;;4.99;100.00
46722;BME280;32455;43.430;23.136;2023-01-23T08:51:59;99124.94;;;5.06;100.00
46722;BME280;32455;43.430;23.136;2023-01-23T08:54:45;99122.94;;;5.08;100.00
46722;BME280;32455;43.430;23.136;2023-01-23T08:57:31;99136.63;;;5.21;100.00
46722;BME280;32455;43.430;23.136;2023-01-23T09:00:16;99130.28;;;5.14;100.00
46722;BME280;32455;43.430;23.136;2023-01-23T09:03:02;99147.28;;;5.21;100.00
46722;BME280;32455;43.430;23.136;2023-01-23T09:05:47;99133.13;;;5.21;100.00
46722;BME280;32455;43.430;23.136;2023-01-23T09:08:32;99131.47;;;5.20;100.00
46722;BME280;32455;43.430;23.136;2023-01-23T09:11:18;99127.78;;;5.21;100.00
46722;BME280;32455;43.430;23.136;2023-01-23T09:14:02;99130.13;;;5.24;100.00
46722;BME280;32455;43.430;23.136;2023-01-23T09:16:47;99126.44;;;5.17;100.00
46722;BME280;32455;43.430;23.136;2023-01-23T09:19:33;99144.47;;;5.31;100.00
46722;BME280;32455;43.430;23.136;2023-01-23T09:22:18;99138.13;;;5.24;100.00
46722;BME280;32455;43.430;23.136;2023-01-23T09:25:04;99145.91;;;5.09;100.00
46722;BME280;32455;43.430;23.136;2023-01-23T09:27:50;99128.81;;;5.28;100.00
46722;BME280;32455;43.430;23.136;2023-01-23T09:30:35;99116.81;;;5.40;100.00
46722;BME280;32455;43.430;23.136;2023-01-23T09:33:21;99136.97;;;5.51;100.00
46722;BME280;32455;43.430;23.136;2023-01-23T09:36:11;99120.97;;;5.51;100.00
46722;BME280;32455;43.430;23.136;2023-01-23T09:38:56;99115.63;;;5.26;100.00
46722;BME280;32455;43.430;23.136;2023-01-23T09:41:43;99114.97;;;5.33;100.00
46722;BME280;32455;43.430;23.136;2023-01-23T09:44:41;99128.00;;;5.36;100.00
46722;BME280;32455;43.430;23.136;2023-01-23T09:50:58;99109.81;;;5.23;100.00
46722;BME280;32455;43.430;23.136;2023-01-23T09:53:45;99132.97;;;5.47;100.00
46722;BME280;32455;43.430;23.136;2023-01-23T09:56:40;99126.47;;;5.33;100.00
46722;BME280;32455;43.430;23.136;2023-01-23T09:59:38;99125.13;;;5.29;100.00
46722;BME280;32455;43.430;23.136;2023-01-23T10:02:23;99132.63;;;5.42;100.00
46722;BME280;32455;43.430;23.136;2023-01-23T10:05:19;99124.63;;;5.34;100.00
46722;BME280;32455;43.430;23.136;2023-01-23T10:08:26;99125.31;;;5.19;100.00
46722;BME280;32455;43.430;23.136;2023-01-23T10:11:24;99122.78;;;5.26;100.00
46722;BME280;32455;43.430;23.136;2023-01-23T10:14:23;99123.13;;;5.15;100.00
46722;BME280;32455;43.430;23.136;2023-01-23T10:23:34;99108.63;;;5.09;100.00
46722;BME280;32455;43.430;23.136;2023-01-23T10:26:31;99111.78;;;4.88;100.00
46722;BME280;32455;43.430;23.136;2023-01-23T10:29:29;99129.91;;;5.01;100.00
46722;BME280;32455;43.430;23.136;2023-01-23T10:32:26;99118.41;;;4.92;100.00
46722;BME280;32455;43.430;23.136;2023-01-23T10:35:17;99130.75;;;4.93;100.00
46722;BME280;32455;43.430;23.136;2023-01-23T10:38:23;99123.72;;;4.92;100.00
46722;BME280;32455;43.430;23.136;2023-01-23T10:41:10;99125.44;;;5.18;100.00
46722;BME280;32455;43.430;23.136;2023-01-23T10:44:01;99127.75;;;5.05;100.00
46722;BME280;32455;43.430;23.136;2023-01-23T10:46:55;99125.25;;;4.95;100.00
46722;BME280;32455;43.430;23.136;2023-01-23T10:49:45;99107.75;;;4.76;100.00
46722;BME280;32455;43.430;23.136;2023-01-23T10:52:37;99119.28;;;4.93;100.00
46722;BME280;32455;43.430;23.136;2023-01-23T10:55:27;99121.09;;;5.00;100.00
46722;BME280;32455;43.430;23.136;2023-01-23T10:58:36;99123.44;;;5.03;100.00
46722;BME280;32455;43.430;23.136;2023-01-23T11:01:30;99117.94;;;4.97;100.00
46722;BME280;32455;43.430;23.136;2023-01-23T11:04:20;99138.09;;;5.08;100.00
46722;BME280;32455;43.430;23.136;2023-01-23T11:07:10;99137.25;;;4.99;100.00
46722;BME280;32455;43.430;23.136;2023-01-23T11:10:17;99129.09;;;5.00;100.00
46722;BME280;32455;43.430;23.136;2023-01-23T11:13:37;99120.44;;;4.98;100.00
46722;BME280;32455;43.430;23.136;2023-01-23T11:16:22;99123.25;;;4.89;100.00
46722;BME280;32455;43.430;23.136;2023-01-23T11:21:59;99139.06;;;4.90;100.00
46722;BME280;32455;43.430;23.136;2023-01-23T11:24:46;99129.06;;;4.84;100.00
46722;BME280;32455;43.430;23.136;2023-01-23T11:27:31;99130.88;;;4.75;100.00
46722;BME280;32455;43.430;23.136;2023-01-23T11:30:48;99137.03;;;4.76;100.00
46722;BME280;32455;43.430;23.136;2023-01-23T11:36:56;99143.63;;;4.64;100.00
46722;BME280;32455;43.430;23.136;2023-01-23T11:39:49;99153.31;;;4.73;100.00
46722;BME280;32455;43.430;23.136;2023-01-23T11:42:40;99154.97;;;4.74;100.00
46722;BME280;32455;43.430;23.136;2023-01-23T11:45:46;99133.59;;;4.49;100.00
46722;BME280;32455;43.430;23.136;2023-01-23T11:55:34;99153.69;;;4.44;100.00
46722;BME280;32455;43.430;23.136;2023-01-23T12:01:54;99138.28;;;4.21;100.00
46722;BME280;32455;43.430;23.136;2023-01-23T12:08:27;99153.59;;;4.27;100.00
46722;BME280;32455;43.430;23.136;2023-01-23T12:11:17;99150.63;;;4.31;100.00
46722;BME280;32455;43.430;23.136;2023-01-23T12:14:15;99164.78;;;4.31;100.00
46722;BME280;32455;43.430;23.136;2023-01-23T12:26:13;99148.56;;;4.16;100.00
46722;BME280;32455;43.430;23.136;2023-01-23T12:41:45;99165.56;;;4.23;100.00
46722;BME280;32455;43.430;23.136;2023-01-23T12:44:37;99177.31;;;4.13;100.00
46722;BME280;32455;43.430;23.136;2023-01-23T12:47:47;99183.97;;;4.17;100.00
46722;BME280;32455;43.430;23.136;2023-01-23T12:53:33;99187.00;;;4.22;100.00
46722;BME280;32455;43.430;23.136;2023-01-23T12:56:28;99198.38;;;4.06;100.00
46722;BME280;32455;43.430;23.136;2023-01-23T13:05:32;99193.25;;;4.13;100.00
46722;BME280;32455;43.430;23.136;2023-01-23T13:17:40;99187.41;;;4.09;100.00
46722;BME280;32455;43.430;23.136;2023-01-23T13:20:37;99187.25;;;4.11;100.00
46722;BME280;32455;43.430;23.136;2023-01-23T13:24:23;99196.22;;;4.10;100.00
46722;BME280;32455;43.430;23.136;2023-01-23T13:27:50;99203.22;;;4.11;100.00
46722;BME280;32455;43.430;23.136;2023-01-23T13:30:40;99195.69;;;4.06;100.00
46722;BME280;32455;43.430;23.136;2023-01-23T13:33:49;99212.06;;;4.11;100.00
46722;BME280;32455;43.430;23.136;2023-01-23T13:36:35;99215.38;;;4.13;100.00
46722;BME280;32455;43.430;23.136;2023-01-23T13:39:26;99210.31;;;4.02;100.00
46722;BME280;32455;43.430;23.136;2023-01-23T13:45:21;99223.22;;;3.97;100.00
46722;BME280;32455;43.430;23.136;2023-01-23T13:48:33;99228.81;;;3.86;100.00
46722;BME280;32455;43.430;23.136;2023-01-23T13:51:43;99210.19;;;3.86;100.00
46722;BME280;32455;43.430;23.136;2023-01-23T13:54:30;99223.63;;;3.84;100.00
46722;BME280;32455;43.430;23.136;2023-01-23T13:57:35;99237.53;;;3.78;100.00
46722;BME280;32455;43.430;23.136;2023-01-23T14:00:22;99243.06;;;3.85;100.00
46722;BME280;32455;43.430;23.136;2023-01-23T14:06:30;99242.09;;;3.86;100.00
46722;BME280;32455;43.430;23.136;2023-01-23T14:09:25;99240.56;;;3.83;100.00
46722;BME280;32455;43.430;23.136;2023-01-23T14:12:10;99242.53;;;3.81;100.00
46722;BME280;32455;43.430;23.136;2023-01-23T14:14:56;99245.75;;;3.67;100.00
46722;BME280;32455;43.430;23.136;2023-01-23T14:18:01;99247.47;;;3.76;100.00
46722;BME280;32455;43.430;23.136;2023-01-23T14:20:48;99243.16;;;3.75;100.00
46722;BME280;32455;43.430;23.136;2023-01-23T14:23:38;99262.97;;;3.81;100.00
46722;BME280;32455;43.430;23.136;2023-01-23T14:26:27;99257.66;;;3.81;100.00
46722;BME280;32455;43.430;23.136;2023-01-23T14:29:21;99255.16;;;3.79;100.00
46722;BME280;32455;43.430;23.136;2023-01-23T14:32:29;99262.38;;;3.87;100.00
46722;BME280;32455;43.430;23.136;2023-01-23T14:35:26;99269.00;;;3.83;100.00
46722;BME280;32455;43.430;23.136;2023-01-23T14:38:19;99269.66;;;3.85;100.00
46722;BME280;32455;43.430;23.136;2023-01-23T14:41:07;99267.25;;;3.73;100.00
46722;BME280;32455;43.430;23.136;2023-01-23T14:43:54;99263.31;;;3.78;100.00
46722;BME280;32455;43.430;23.136;2023-01-23T14:46:42;99260.56;;;3.69;100.00
46722;BME280;32455;43.430;23.136;2023-01-23T14:49:35;99253.72;;;3.49;100.00
46722;BME280;32455;43.430;23.136;2023-01-23T14:52:25;99276.06;;;3.74;100.00
46722;BME280;32455;43.430;23.136;2023-01-23T14:55:21;99274.06;;;3.76;100.00
46722;BME280;32455;43.430;23.136;2023-01-23T14:58:22;99265.09;;;3.59;100.00
46722;BME280;32455;43.430;23.136;2023-01-23T15:01:10;99263.81;;;3.63;100.00
46722;BME280;32455;43.430;23.136;2023-01-23T15:04:02;99268.28;;;3.63;100.00
46722;BME280;32455;43.430;23.136;2023-01-23T15:07:14;99274.22;;;3.57;100.00
46722;BME280;32455;43.430;23.136;2023-01-23T15:10:01;99270.88;;;3.72;100.00
46722;BME280;32455;43.430;23.136;2023-01-23T15:13:04;99266.38;;;3.55;100.00
46722;BME280;32455;43.430;23.136;2023-01-23T15:16:00;99284.09;;;3.64;100.00
46722;BME280;32455;43.430;23.136;2023-01-23T15:19:18;99292.66;;;3.76;100.00
46722;BME280;32455;43.430;23.136;2023-01-23T15:22:17;99270.31;;;3.51;100.00
46722;BME280;32455;43.430;23.136;2023-01-23T15:25:31;99302.16;;;3.61;100.00
46722;BME280;32455;43.430;23.136;2023-01-23T15:34:32;99319.31;;;3.48;100.00
46722;BME280;32455;43.430;23.136;2023-01-23T15:37:25;99313.19;;;3.38;100.00
46722;BME280;32455;43.430;23.136;2023-01-23T15:40:18;99318.13;;;3.33;100.00
46722;BME280;32455;43.430;23.136;2023-01-23T15:43:14;99307.94;;;3.29;100.00
46722;BME280;32455;43.430;23.136;2023-01-23T15:46:01;99300.97;;;3.28;100.00
46722;BME280;32455;43.430;23.136;2023-01-23T15:48:48;99316.06;;;3.27;100.00
46722;BME280;32455;43.430;23.136;2023-01-23T15:51:34;99321.00;;;3.22;100.00
46722;BME280;32455;43.430;23.136;2023-01-23T15:54:22;99348.13;;;3.16;100.00
46722;BME280;32455;43.430;23.136;2023-01-23T15:57:12;99319.84;;;2.97;100.00
46722;BME280;32455;43.430;23.136;2023-01-23T15:59:57;99330.78;;;3.21;100.00
46722;BME280;32455;43.430;23.136;2023-01-23T16:02:44;99345.03;;;3.20;100.00
46722;BME280;32455;43.430;23.136;2023-01-23T16:05:35;99353.53;;;3.24;100.00
46722;BME280;32455;43.430;23.136;2023-01-23T16:08:21;99337.13;;;3.11;100.00